createdAt,value
2022-12-26T00:01:06.724Z,39.70
2022-12-26T00:03:34.204Z,39.45
2022-12-26T00:06:01.874Z,40.90
2022-12-26T00:08:29.318Z,42.38
2022-12-26T00:10:56.925Z,41.75
2022-12-26T00:13:38.613Z,43.58
2022-12-26T00:16:10.294Z,42.35
2022-12-26T00:18:38.176Z,37.95
2022-12-26T00:21:05.941Z,40.63
2022-12-26T00:23:34.133Z,38.17
2022-12-26T00:26:03.618Z,40.80
2022-12-26T00:28:32.503Z,38.75
2022-12-26T00:31:00.247Z,40.33
2022-12-26T00:33:27.865Z,40.65
2022-12-26T00:35:55.226Z,39.97
2022-12-26T00:38:22.595Z,38.55
2022-12-26T00:40:49.970Z,41.15
2022-12-26T00:43:17.428Z,40.53
2022-12-26T00:45:48.674Z,39.65
2022-12-26T00:48:16.071Z,41.40
2022-12-26T00:50:43.437Z,40.80
2022-12-26T00:53:10.874Z,41.20
2022-12-26T00:55:38.298Z,39.28
2022-12-26T00:58:05.890Z,42.08
2022-12-26T01:00:33.632Z,40.97
2022-12-26T01:03:02.598Z,43.60
2022-12-26T01:05:30.124Z,44.72
2022-12-26T01:08:23.289Z,42.65
2022-12-26T01:10:47.226Z,40.28
2022-12-26T01:13:14.707Z,41.88
2022-12-26T01:15:48.556Z,40.47
2022-12-26T01:18:17.241Z,41.13
2022-12-26T01:20:44.615Z,45.55
2022-12-26T01:23:11.991Z,43.35
2022-12-26T01:26:17.875Z,40.80
2022-12-26T01:28:27.647Z,42.88
2022-12-26T01:30:55.316Z,39.70
2022-12-26T01:33:23.980Z,45.63
2022-12-26T01:35:52.996Z,42.60
2022-12-26T01:38:21.124Z,42.45
2022-12-26T01:43:17.432Z,42.33
2022-12-26T01:48:20.965Z,41.38
2022-12-26T01:50:55.339Z,48.67
2022-12-26T01:53:26.964Z,44.92
2022-12-26T01:55:59.996Z,43.38
2022-12-26T01:58:32.564Z,42.05
2022-12-26T02:01:00.512Z,41.60
2022-12-26T02:03:45.684Z,45.22
2022-12-26T02:06:16.627Z,41.17
2022-12-26T02:08:45.960Z,43.90
2022-12-26T02:11:17.046Z,44.70
2022-12-26T02:13:44.737Z,42.92
2022-12-26T02:16:16.273Z,39.45
2022-12-26T02:18:43.705Z,43.72
2022-12-26T02:21:30.497Z,46.00
2022-12-26T02:24:28.021Z,43.27
2022-12-26T02:27:21.698Z,39.63
2022-12-26T02:30:13.810Z,39.97
2022-12-26T02:32:59.537Z,42.10
2022-12-26T02:35:40.019Z,47.42
2022-12-26T02:38:20.104Z,44.10
2022-12-26T02:40:54.674Z,42.47
2022-12-26T02:43:28.219Z,43.15
2022-12-26T02:46:23.523Z,45.03
2022-12-26T02:48:59.296Z,39.63
2022-12-26T02:51:59.101Z,41.25
2022-12-26T02:54:49.695Z,41.58
2022-12-26T02:57:39.658Z,40.78
2022-12-26T03:00:29.919Z,42.65
2022-12-26T03:03:20.461Z,47.33
2022-12-26T03:06:16.996Z,46.25
2022-12-26T03:09:06.915Z,43.65
2022-12-26T03:11:56.862Z,42.13
2022-12-26T03:14:27.668Z,40.50
2022-12-26T03:17:18.512Z,36.97
2022-12-26T03:20:00.233Z,41.42
2022-12-26T03:22:37.241Z,37.67
2022-12-26T03:25:26.011Z,39.80
2022-12-26T03:27:54.609Z,36.78
2022-12-26T03:30:39.719Z,38.13
2022-12-26T03:33:28.244Z,43.00
2022-12-26T03:35:54.925Z,39.17
2022-12-26T03:38:30.026Z,41.63
2022-12-26T03:41:19.006Z,40.78
2022-12-26T03:44:15.375Z,40.13
2022-12-26T03:47:13.434Z,37.00
2022-12-26T03:50:04.236Z,38.70
2022-12-26T03:52:57.153Z,42.58
2022-12-26T03:55:49.746Z,42.47
2022-12-26T03:58:41.591Z,42.63
2022-12-26T04:01:30.474Z,42.85
2022-12-26T04:04:18.817Z,40.95
2022-12-26T04:07:09.975Z,38.33
2022-12-26T04:09:59.694Z,38.05
2022-12-26T04:12:48.623Z,36.47
2022-12-26T04:15:41.086Z,41.33
2022-12-26T04:18:31.298Z,40.92
2022-12-26T04:21:31.655Z,40.05
2022-12-26T04:24:36.284Z,42.92
2022-12-26T04:27:24.474Z,42.40
2022-12-26T04:30:11.351Z,40.92
2022-12-26T04:33:01.043Z,43.20
2022-12-26T04:35:50.474Z,43.58
2022-12-26T04:38:40.238Z,38.92
2022-12-26T04:41:27.818Z,44.35
2022-12-26T04:44:05.102Z,44.05
2022-12-26T04:46:36.243Z,44.25
2022-12-26T04:49:24.707Z,40.80
2022-12-26T04:51:52.285Z,46.97
2022-12-26T04:54:19.783Z,43.00
2022-12-26T04:56:47.264Z,40.47
2022-12-26T04:59:15.025Z,41.17
2022-12-26T05:02:01.560Z,40.08
2022-12-26T05:04:47.175Z,40.05
2022-12-26T05:07:36.410Z,40.15
2022-12-26T05:12:56.772Z,33.83
2022-12-26T05:15:24.744Z,32.17
2022-12-26T05:20:57.790Z,32.40
2022-12-26T05:23:46.271Z,33.73
2022-12-26T05:26:38.910Z,34.38
2022-12-26T05:29:06.516Z,32.65
2022-12-26T05:34:26.078Z,34.78
2022-12-26T05:36:57.373Z,30.75
2022-12-26T05:39:24.800Z,32.40
2022-12-26T05:41:52.471Z,29.40
2022-12-26T05:47:10.799Z,31.88
2022-12-26T05:52:30.617Z,34.03
2022-12-26T05:54:58.061Z,29.60
2022-12-26T05:57:25.420Z,30.77
2022-12-26T05:59:53.133Z,31.20
2022-12-26T06:02:20.672Z,32.63
2022-12-26T06:04:49.391Z,32.67
2022-12-26T06:07:16.802Z,36.85
2022-12-26T06:09:44.162Z,39.05
2022-12-26T06:12:11.860Z,33.83
2022-12-26T06:14:39.263Z,30.73
2022-12-26T06:17:07.845Z,33.50
2022-12-26T06:19:35.242Z,31.02
2022-12-26T06:22:03.932Z,32.92
2022-12-26T06:24:31.291Z,30.13
2022-12-26T06:26:58.638Z,29.92
2022-12-26T06:29:25.989Z,32.25
2022-12-26T06:31:56.845Z,33.40
2022-12-26T06:34:24.266Z,34.97
2022-12-26T06:36:51.667Z,32.17
2022-12-26T06:39:20.349Z,35.67
2022-12-26T06:41:51.220Z,35.25
2022-12-26T06:44:18.946Z,33.92
2022-12-26T06:46:46.694Z,29.48
2022-12-26T06:49:14.578Z,33.28
2022-12-26T06:51:44.906Z,32.58
2022-12-26T06:54:15.897Z,34.45
2022-12-26T06:56:44.738Z,31.25
2022-12-26T06:59:12.642Z,33.15
2022-12-26T07:01:40.158Z,38.45
2022-12-26T07:04:07.621Z,32.85
2022-12-26T07:06:37.423Z,34.78
2022-12-26T07:09:07.515Z,35.80
2022-12-26T07:11:37.507Z,32.50
2022-12-26T07:14:11.023Z,31.05
2022-12-26T07:19:32.228Z,30.05
2022-12-26T07:21:59.606Z,32.10
2022-12-26T07:24:26.968Z,30.02
2022-12-26T07:26:54.381Z,29.60
2022-12-26T07:29:23.266Z,35.80
2022-12-26T07:34:42.473Z,32.72
2022-12-26T07:37:10.050Z,35.53
2022-12-26T07:39:38.048Z,35.38
2022-12-26T07:44:35.000Z,31.48
2022-12-26T07:47:02.690Z,33.03
2022-12-26T07:52:23.190Z,33.95
2022-12-26T07:54:50.548Z,32.75
2022-12-26T08:00:08.257Z,32.75
2022-12-26T08:02:35.983Z,30.30
2022-12-26T08:05:03.483Z,28.88
2022-12-26T08:07:30.847Z,32.92
2022-12-26T08:09:58.398Z,34.30
2022-12-26T08:12:26.986Z,35.05
2022-12-26T08:14:54.416Z,36.80
2022-12-26T08:20:14.844Z,34.40
2022-12-26T08:22:42.240Z,32.42
2022-12-26T08:25:13.402Z,33.72
2022-12-26T08:27:42.901Z,31.60
2022-12-26T08:30:11.397Z,28.65
2022-12-26T08:32:42.493Z,30.33
2022-12-26T08:35:11.839Z,35.03
2022-12-26T08:37:39.202Z,31.90
2022-12-26T08:40:07.632Z,30.17
2022-12-26T08:42:44.605Z,30.92
2022-12-26T08:45:17.962Z,32.97
2022-12-26T08:47:46.645Z,33.90
2022-12-26T08:50:14.088Z,30.50
2022-12-26T08:52:41.589Z,31.63
2022-12-26T08:55:10.322Z,30.23
2022-12-26T08:57:38.551Z,33.08
2022-12-26T09:00:07.708Z,31.20
2022-12-26T09:03:01.977Z,32.53
2022-12-26T09:08:20.709Z,31.58
2022-12-26T09:10:48.132Z,30.10
2022-12-26T09:13:18.830Z,32.17
2022-12-26T09:15:46.194Z,31.83
2022-12-26T09:18:14.908Z,30.38
2022-12-26T09:20:42.303Z,30.52
2022-12-26T09:23:10.806Z,33.22
2022-12-26T09:28:29.853Z,32.00
2022-12-26T09:31:00.709Z,29.50
2022-12-26T09:33:33.847Z,32.08
2022-12-26T09:36:04.532Z,30.13
2022-12-26T09:38:34.707Z,28.10
2022-12-26T09:41:21.863Z,27.77
2022-12-26T09:44:00.954Z,25.42
2022-12-26T09:46:34.125Z,25.20
2022-12-26T09:49:07.285Z,25.92
2022-12-26T09:51:36.328Z,25.15
2022-12-26T09:54:07.968Z,24.73
2022-12-26T10:02:23.617Z,27.60
2022-12-26T10:04:53.132Z,26.60
2022-12-26T10:16:25.730Z,25.30
2022-12-26T10:19:02.322Z,28.30
2022-12-26T10:24:38.081Z,28.27
2022-12-26T10:27:13.552Z,30.60
2022-12-26T10:29:43.544Z,30.60
2022-12-26T10:32:20.568Z,31.63
2022-12-26T10:34:52.820Z,31.77
2022-12-26T10:37:26.984Z,30.20
2022-12-26T10:39:59.039Z,30.75
2022-12-26T10:42:31.460Z,31.73
2022-12-26T10:47:52.484Z,29.77
2022-12-26T10:50:27.850Z,30.63
2022-12-26T10:52:58.041Z,31.42
2022-12-26T10:55:34.786Z,30.50
2022-12-26T10:58:07.893Z,32.50
2022-12-26T11:00:35.628Z,28.38
2022-12-26T11:03:05.706Z,34.05
2022-12-26T11:08:28.796Z,29.48
2022-12-26T11:11:09.910Z,32.45
2022-12-26T11:13:41.105Z,31.42
2022-12-26T11:16:09.414Z,28.80
2022-12-26T11:18:43.818Z,26.67
2022-12-26T11:21:23.144Z,28.38
2022-12-26T11:23:56.749Z,29.27
2022-12-26T11:26:26.784Z,32.47
2022-12-26T11:29:11.836Z,27.85
2022-12-26T11:31:41.270Z,29.00
2022-12-26T11:34:10.685Z,28.98
2022-12-26T11:36:44.840Z,29.70
2022-12-26T11:39:23.045Z,28.20
2022-12-26T11:41:53.791Z,28.55
2022-12-26T11:44:27.502Z,28.70
2022-12-26T11:46:59.252Z,28.38
2022-12-26T11:49:31.758Z,24.98
2022-12-26T11:54:54.901Z,24.48
2022-12-26T11:57:28.273Z,29.25
2022-12-26T11:59:56.974Z,28.25
2022-12-26T12:02:32.789Z,27.15
2022-12-26T12:05:03.475Z,27.40
2022-12-26T12:08:00.957Z,26.30
2022-12-26T12:10:48.623Z,26.45
2022-12-26T12:13:26.343Z,29.38
2022-12-26T12:16:00.907Z,28.60
2022-12-26T12:18:40.135Z,28.77
2022-12-26T12:21:20.257Z,27.83
2022-12-26T12:23:57.872Z,27.45
2022-12-26T12:26:33.705Z,29.30
2022-12-26T12:29:24.248Z,34.75
2022-12-26T12:32:06.948Z,27.20
2022-12-26T12:34:52.121Z,31.38
2022-12-26T12:37:29.662Z,29.65
2022-12-26T12:40:24.447Z,29.73
2022-12-26T12:43:01.807Z,31.15
2022-12-26T12:45:33.640Z,30.08
2022-12-26T12:48:23.799Z,31.80
2022-12-26T12:50:58.780Z,31.67
2022-12-26T12:53:42.593Z,31.23
2022-12-26T12:56:28.929Z,31.38
2022-12-26T12:59:08.010Z,30.48
2022-12-26T13:01:40.846Z,30.48
2022-12-26T13:04:12.250Z,32.13
2022-12-26T13:06:43.704Z,33.53
2022-12-26T13:09:17.958Z,33.55
2022-12-26T13:11:49.886Z,34.33
2022-12-26T13:14:22.665Z,38.05
2022-12-26T13:16:56.048Z,35.47
2022-12-26T13:19:26.306Z,34.47
2022-12-26T13:21:58.412Z,40.15
2022-12-26T13:24:32.278Z,41.92
2022-12-26T13:27:05.473Z,35.28
2022-12-26T13:29:41.777Z,44.72
2022-12-26T13:32:21.127Z,42.60
2022-12-26T13:34:49.338Z,43.80
2022-12-26T13:37:54.745Z,42.70
2022-12-26T13:40:24.897Z,42.13
2022-12-26T13:43:19.730Z,43.58
2022-12-26T13:45:56.368Z,43.78
2022-12-26T13:52:01.735Z,40.72
2022-12-26T13:54:30.210Z,39.40
2022-12-26T13:57:36.707Z,40.13
2022-12-26T14:00:23.930Z,43.97
2022-12-26T14:03:45.234Z,42.88
2022-12-26T14:06:40.725Z,38.13
2022-12-26T14:09:21.495Z,38.33
2022-12-26T14:12:22.986Z,39.80
2022-12-26T14:18:09.666Z,36.10
2022-12-26T14:20:45.635Z,34.80
2022-12-26T14:23:36.281Z,39.42
2022-12-26T14:26:09.614Z,39.08
2022-12-26T14:28:53.463Z,39.40
2022-12-26T14:31:31.721Z,33.78
2022-12-26T14:34:10.852Z,35.30
2022-12-26T14:36:45.242Z,36.30
2022-12-26T14:39:25.849Z,34.45
2022-12-26T14:42:34.787Z,38.22
2022-12-26T14:47:56.262Z,42.55
2022-12-26T14:50:38.954Z,43.55
2022-12-26T14:53:31.543Z,42.40
2022-12-26T14:56:00.858Z,39.53
2022-12-26T14:58:42.670Z,42.67
2022-12-26T15:01:47.295Z,42.25
2022-12-26T15:04:52.078Z,41.45
2022-12-26T15:07:46.666Z,43.35
2022-12-26T15:10:45.571Z,38.13
2022-12-26T15:13:42.058Z,36.83
2022-12-26T15:16:40.026Z,39.47
2022-12-26T15:19:59.746Z,32.65
2022-12-26T15:23:02.431Z,35.97
2022-12-26T15:26:20.672Z,34.80
2022-12-26T15:29:04.568Z,34.95
2022-12-26T15:31:42.733Z,34.20
2022-12-26T15:34:31.109Z,31.73
2022-12-26T15:37:03.525Z,35.40
2022-12-26T15:39:39.079Z,33.80
2022-12-26T15:42:30.872Z,33.70
2022-12-26T15:45:15.015Z,33.85
2022-12-26T15:47:52.770Z,32.47
2022-12-26T15:50:27.743Z,33.90
2022-12-26T15:53:09.391Z,33.22
2022-12-26T15:56:06.874Z,35.33
2022-12-26T16:01:48.740Z,34.35
2022-12-26T16:04:22.170Z,33.30
2022-12-26T16:07:11.684Z,34.28
2022-12-26T16:09:44.625Z,35.38
2022-12-26T16:15:19.849Z,33.83
2022-12-26T16:17:48.978Z,33.95
2022-12-26T16:20:45.726Z,33.67
2022-12-26T16:23:15.068Z,32.40
2022-12-26T16:25:50.734Z,33.67
2022-12-26T16:28:24.556Z,37.08
2022-12-26T16:30:55.726Z,34.38
2022-12-26T16:33:24.582Z,34.50
2022-12-26T16:38:45.372Z,36.03
2022-12-26T16:41:20.507Z,35.58
2022-12-26T16:43:47.913Z,34.20
2022-12-26T16:46:18.152Z,34.90
2022-12-26T16:51:47.215Z,34.47
2022-12-26T16:54:37.313Z,37.22
2022-12-26T16:57:09.716Z,37.17
2022-12-26T17:02:46.781Z,39.85
2022-12-26T17:05:22.142Z,40.97
2022-12-26T17:07:52.149Z,39.88
2022-12-26T17:10:22.719Z,41.50
2022-12-26T17:15:51.353Z,41.58
2022-12-26T17:18:47.488Z,40.25
2022-12-26T17:21:22.542Z,41.47
2022-12-26T17:24:25.391Z,40.05
2022-12-26T17:27:09.700Z,38.92
2022-12-26T17:29:46.773Z,39.55
2022-12-26T17:32:16.787Z,38.80
2022-12-26T17:34:44.646Z,38.78
2022-12-26T17:37:23.667Z,40.38
2022-12-26T17:39:56.714Z,42.83
2022-12-26T17:45:22.325Z,42.17
2022-12-26T17:47:53.702Z,37.47
2022-12-26T17:50:21.272Z,42.47
2022-12-26T17:52:50.340Z,38.45
2022-12-26T17:55:19.780Z,40.45
2022-12-26T17:57:47.615Z,37.53
2022-12-26T18:03:15.891Z,36.03
2022-12-26T18:05:43.758Z,35.55
2022-12-26T18:08:25.698Z,36.00
2022-12-26T18:10:53.093Z,35.42
2022-12-26T18:13:20.456Z,34.63
2022-12-26T18:15:48.384Z,34.83
2022-12-26T18:18:24.854Z,36.15
2022-12-26T18:23:45.305Z,38.30
2022-12-26T18:26:18.681Z,34.90
2022-12-26T18:28:46.353Z,35.35
2022-12-26T18:31:15.166Z,39.97
2022-12-26T18:33:42.532Z,36.28
2022-12-26T18:36:11.665Z,37.40
2022-12-26T18:38:39.113Z,35.00
2022-12-26T18:41:07.866Z,34.28
2022-12-26T18:43:35.496Z,34.20
2022-12-26T18:46:02.936Z,38.13
2022-12-26T18:48:30.375Z,36.53
2022-12-26T18:50:57.741Z,34.78
2022-12-26T18:53:25.180Z,33.17
2022-12-26T18:55:53.316Z,35.55
2022-12-26T19:00:49.307Z,34.85
2022-12-26T19:06:11.315Z,32.78
2022-12-26T19:08:38.666Z,36.65
2022-12-26T19:11:06.064Z,34.45
2022-12-26T19:13:36.099Z,32.10
2022-12-26T19:16:03.573Z,35.10
2022-12-26T19:18:30.998Z,33.95
2022-12-26T19:20:58.574Z,32.25
2022-12-26T19:23:25.918Z,32.35
2022-12-26T19:25:53.305Z,31.65
2022-12-26T19:28:20.679Z,32.13
2022-12-26T19:33:40.738Z,37.65
2022-12-26T19:36:10.634Z,35.78
2022-12-26T19:38:38.363Z,31.85
2022-12-26T19:44:00.650Z,30.13
2022-12-26T19:49:21.648Z,31.83
2022-12-26T19:51:51.110Z,31.85
2022-12-26T19:54:21.642Z,31.10
2022-12-26T19:56:49.383Z,31.42
2022-12-26T19:59:18.700Z,31.15
2022-12-26T20:01:48.409Z,32.75
2022-12-26T20:04:15.990Z,31.15
2022-12-26T20:06:43.390Z,31.33
2022-12-26T20:09:15.598Z,30.25
2022-12-26T20:11:49.229Z,32.35
2022-12-26T20:14:19.002Z,32.67
2022-12-26T20:17:08.579Z,34.55
2022-12-26T20:22:29.121Z,45.85
2022-12-26T20:24:56.475Z,35.85
2022-12-26T20:30:15.754Z,41.17
2022-12-26T20:32:46.710Z,45.72
2022-12-26T20:35:14.325Z,50.13
2022-12-26T20:37:41.690Z,53.20
2022-12-26T20:40:10.044Z,52.30
2022-12-26T20:42:37.396Z,57.08
2022-12-26T20:45:05.660Z,52.08
2022-12-26T20:47:33.046Z,67.88
2022-12-26T20:50:05.593Z,65.75
2022-12-26T20:52:33.168Z,75.53
2022-12-26T20:55:03.618Z,62.10
2022-12-26T20:57:30.995Z,71.38
2022-12-26T20:59:58.353Z,61.22
2022-12-26T21:02:25.858Z,63.78
2022-12-26T21:04:53.722Z,65.75
2022-12-26T21:07:22.402Z,75.43
2022-12-26T21:09:49.752Z,64.05
2022-12-26T21:12:17.113Z,70.22
2022-12-26T21:14:44.461Z,70.50
2022-12-26T21:17:11.924Z,59.65
2022-12-26T21:19:39.360Z,65.57
2022-12-26T21:22:08.589Z,64.53
2022-12-26T21:24:37.282Z,69.57
2022-12-26T21:27:05.116Z,65.10
2022-12-26T21:29:34.711Z,54.70
2022-12-26T21:32:03.433Z,59.95
2022-12-26T21:37:42.290Z,69.25
2022-12-26T21:40:12.050Z,80.75
2022-12-26T21:42:39.426Z,63.28
2022-12-26T21:45:07.726Z,53.10
2022-12-26T21:50:26.671Z,74.22
2022-12-26T21:52:54.029Z,57.63
2022-12-26T21:55:27.667Z,54.85
2022-12-26T21:57:55.394Z,55.20
2022-12-26T22:00:24.218Z,56.85
2022-12-26T22:03:09.643Z,59.53
2022-12-26T22:05:43.552Z,57.47
2022-12-26T22:08:12.164Z,50.65
2022-12-26T22:13:54.715Z,47.35
2022-12-26T22:16:22.123Z,47.05
2022-12-26T22:21:40.525Z,48.92
2022-12-26T22:24:08.286Z,45.65
2022-12-26T22:26:36.967Z,43.80
2022-12-26T22:31:58.307Z,43.08
2022-12-26T22:37:17.590Z,522.85
2022-12-26T22:39:44.979Z,999.90
2022-12-26T22:42:13.653Z,999.90
2022-12-26T22:44:41.014Z,999.90
2022-12-26T22:47:08.363Z,526.75
2022-12-26T22:49:39.594Z,999.90
2022-12-26T22:52:11.077Z,999.90
2022-12-26T22:54:45.542Z,999.90
2022-12-26T22:57:15.049Z,999.90
2022-12-26T23:00:07.750Z,999.90
2022-12-26T23:02:30.995Z,999.90
2022-12-26T23:05:02.544Z,999.90
2022-12-26T23:07:30.774Z,999.90
2022-12-26T23:12:55.665Z,999.90
2022-12-26T23:15:25.469Z,999.90
2022-12-26T23:18:16.117Z,999.90
2022-12-26T23:21:01.498Z,999.90
2022-12-26T23:26:20.739Z,764.75
2022-12-26T23:29:07.101Z,55.33
2022-12-26T23:31:34.501Z,999.90
2022-12-26T23:36:53.548Z,762.15
2022-12-26T23:39:21.144Z,999.90
2022-12-26T23:41:48.526Z,41.35
2022-12-26T23:47:09.491Z,48.33
2022-12-26T23:49:36.919Z,999.90
2022-12-26T23:52:06.552Z,999.90
2022-12-26T23:54:33.941Z,999.90
2022-12-26T23:57:01.329Z,43.13
2022-12-26T23:59:30.058Z,39.88
